Time;durP1;ratioP1;P1;durP2;ratioP2;P2;SDS_P1;SDS_P2;PMS_P1;PMS_P2;Temp;Humidity;BMP_temperature;BMP_pressure;BME280_temperature;BME280_humidity;BME280_pressure;Samples;Min_cycle;Max_cycle;Signal;HPM_P1;HPM_P2
2021/07/04 00:01:09;;;;;;;8.65;7.83;;;;;;;21.06;90.06;98791.51;1711087;83;20973;-71
2021/07/04 00:03:38;;;;;;;8.43;7.75;;;;;;;20.84;91.60;98784.55;1691478;83;20984;-74
2021/07/04 00:06:04;;;;;;;10.40;9.30;;;;;;;20.71;92.73;98792.50;1675445;83;21020;-76
2021/07/04 00:08:31;;;;;;;12.03;9.70;;;;;;;20.55;93.65;98787.44;1669694;85;21103;-71
2021/07/04 00:11:04;;;;;;;9.58;8.53;;;;;;;20.42;94.93;98784.45;1673358;85;21095;-70
2021/07/04 00:13:32;;;;;;;9.43;8.55;;;;;;;20.33;96.35;98780.45;1664834;83;20972;-71
2021/07/04 00:16:00;;;;;;;9.93;9.13;;;;;;;20.23;96.66;98777.30;1663987;86;21568;-74
2021/07/04 00:18:28;;;;;;;10.75;8.73;;;;;;;20.24;98.67;98773.44;1666046;84;21038;-72
2021/07/04 00:20:56;;;;;;;9.90;8.70;;;;;;;20.36;97.81;98773.49;1663729;86;21086;-71
2021/07/04 00:23:23;;;;;;;9.70;8.80;;;;;;;20.42;96.07;98768.86;1678943;84;21909;-72
2021/07/04 00:25:52;;;;;;;10.50;9.50;;;;;;;20.50;95.43;98775.92;1693188;84;20991;-73
2021/07/04 00:28:22;;;;;;;9.98;9.18;;;;;;;20.40;95.94;98775.78;1693069;84;21050;-76
2021/07/04 00:30:51;;;;;;;9.25;8.43;;;;;;;20.22;97.59;98779.22;1691448;83;21037;-75
2021/07/04 00:33:18;;;;;;;10.10;9.20;;;;;;;20.06;97.93;98782.89;1693626;83;21012;-73
2021/07/04 00:35:45;;;;;;;11.00;9.85;;;;;;;19.86;100.00;98774.94;1692959;84;21921;-73
2021/07/04 00:38:12;;;;;;;11.25;9.88;;;;;;;19.83;100.00;98776.98;1694929;83;21034;-72
2021/07/04 00:40:42;;;;;;;10.38;9.35;;;;;;;19.97;100.00;98777.51;1721963;83;20982;-70
2021/07/04 00:43:08;;;;;;;10.63;9.58;;;;;;;20.08;100.00;98775.18;1708981;83;21030;-71
2021/07/04 00:45:36;;;;;;;14.03;11.35;;;;;;;20.16;100.00;98775.09;1684465;83;21032;-72
2021/07/04 00:48:03;;;;;;;10.63;9.55;;;;;;;20.27;100.00;98773.55;1663950;86;21537;-86
2021/07/04 00:50:30;;;;;;;10.58;9.45;;;;;;;20.34;100.00;98779.28;1663889;85;21016;-71
2021/07/04 00:52:59;;;;;;;10.98;9.25;;;;;;;20.36;100.00;98781.13;1664548;84;21059;-71
2021/07/04 00:55:28;;;;;;;11.48;10.30;;;;;;;20.31;99.61;98788.16;1666948;83;21075;-73
2021/07/04 00:57:57;;;;;;;12.58;9.50;;;;;;;20.11;99.57;98786.78;1695052;82;22199;-71
2021/07/04 01:00:33;;;;;;;9.90;9.00;;;;;;;20.06;100.00;98786.98;1723963;82;21122;-70
2021/07/04 01:03:00;;;;;;;10.50;9.40;;;;;;;20.06;99.44;98793.24;1711972;83;20955;-71
2021/07/04 01:05:30;;;;;;;9.50;8.45;;;;;;;20.06;98.96;98783.69;1693110;84;21140;-73
2021/07/04 01:07:58;;;;;;;13.00;10.32;;;;;;;20.03;99.51;98787.10;1693182;84;21107;-71
2021/07/04 01:10:27;;;;;;;15.28;10.75;;;;;;;19.92;100.00;98788.63;1681592;84;21212;-72
2021/07/04 01:13:03;;;;;;;11.88;10.78;;;;;;;19.84;100.00;98783.48;1647388;86;21172;-72
2021/07/04 01:15:30;;;;;;;12.10;11.00;;;;;;;19.82;100.00;98785.73;1645903;86;21008;-72
2021/07/04 01:17:59;;;;;;;11.15;9.95;;;;;;;19.77;100.00;98790.58;1659673;86;20944;-72
2021/07/04 01:20:28;;;;;;;11.97;9.93;;;;;;;19.76;100.00;98788.41;1683477;84;21088;-71
2021/07/04 01:23:01;;;;;;;10.18;9.13;;;;;;;19.83;100.00;98789.27;1655315;86;21107;-71
2021/07/04 01:25:32;;;;;;;11.85;10.35;;;;;;;19.86;100.00;98779.03;1659822;86;21149;-73
2021/07/04 01:28:00;;;;;;;13.08;11.70;;;;;;;19.87;100.00;98784.17;1657462;86;21573;-73
2021/07/04 01:30:27;;;;;;;11.48;10.28;;;;;;;19.76;100.00;98779.45;1659685;86;20995;-72
2021/07/04 01:32:58;;;;;;;11.75;10.48;;;;;;;19.70;100.00;98780.78;1653766;86;21095;-71
2021/07/04 01:35:25;;;;;;;12.78;11.50;;;;;;;19.67;100.00;98775.41;1631498;88;21087;-70
2021/07/04 01:37:59;;;;;;;11.53;10.40;;;;;;;19.65;100.00;98783.14;1631464;88;21232;-73
2021/07/04 01:40:27;;;;;;;12.47;11.18;;;;;;;19.64;100.00;98776.64;1616629;86;21060;-70
2021/07/04 01:42:54;;;;;;;10.93;9.83;;;;;;;19.70;100.00;98784.31;1653121;86;21429;-69
2021/07/04 01:45:21;;;;;;;12.88;10.35;;;;;;;19.74;100.00;98783.08;1659783;86;21027;-71
2021/07/04 01:47:50;;;;;;;14.35;12.18;;;;;;;19.77;100.00;98783.20;1657923;86;21548;-70
2021/07/04 01:50:21;;;;;;;12.63;10.85;;;;;;;19.66;100.00;98780.65;1631192;88;21533;-71
2021/07/04 01:52:48;;;;;;;12.90;11.70;;;;;;;19.50;100.00;98783.72;1636366;86;22182;-70
2021/07/04 01:55:16;;;;;;;12.85;11.70;;;;;;;19.40;100.00;98779.97;1659577;86;21039;-71
2021/07/04 01:57:45;;;;;;;12.28;11.18;;;;;;;19.34;100.00;98776.63;1659682;86;21536;-71
2021/07/04 02:00:28;;;;;;;12.20;11.00;;;;;;;19.28;100.00;98784.75;1634859;86;21032;-72
2021/07/04 02:03:10;;;;;;;11.57;10.48;;;;;;;19.25;100.00;98785.42;1632202;86;21162;-70
2021/07/04 02:05:38;;;;;;;13.15;11.80;;;;;;;19.21;100.00;98784.48;1631873;86;21516;-71
2021/07/04 02:08:08;;;;;;;11.43;10.32;;;;;;;19.15;100.00;98789.32;1654634;86;21039;-70
2021/07/04 02:10:38;;;;;;;11.88;10.45;;;;;;;19.23;100.00;98791.79;1659601;85;21004;-71
2021/07/04 02:13:08;;;;;;;11.28;10.00;;;;;;;19.24;100.00;98802.91;1654888;86;20956;-73
2021/07/04 02:15:38;;;;;;;12.15;10.95;;;;;;;19.28;100.00;98800.34;1659219;86;21120;-72
2021/07/04 02:18:17;;;;;;;11.93;10.03;;;;;;;19.32;100.00;98798.55;1658511;86;20991;-71
2021/07/04 02:21:02;;;;;;;11.38;10.32;;;;;;;19.35;100.00;98805.50;1646160;86;20997;-71
2021/07/04 02:23:32;;;;;;;12.50;11.25;;;;;;;19.27;100.00;98811.01;1647894;86;21516;-68
2021/07/04 02:26:13;;;;;;;12.40;11.12;;;;;;;19.20;100.00;98814.23;1659742;86;21059;-70
2021/07/04 02:28:42;;;;;;;13.15;10.70;;;;;;;19.17;100.00;98810.81;1644614;86;21219;-69
2021/07/04 02:31:11;;;;;;;13.80;11.85;;;;;;;19.13;100.00;98817.48;1630794;87;21008;-70
2021/07/04 02:33:38;;;;;;;13.48;12.07;;;;;;;19.12;100.00;98812.35;1646493;86;21163;-70
2021/07/04 02:36:06;;;;;;;15.32;13.48;;;;;;;19.14;100.00;98816.90;1642979;86;20964;-70
2021/07/04 02:38:33;;;;;;;12.40;11.25;;;;;;;19.18;100.00;98821.95;1632779;87;21053;-70
2021/07/04 02:41:00;;;;;;;11.25;10.25;;;;;;;19.29;100.00;98829.18;1632622;87;21134;-71
2021/07/04 02:43:27;;;;;;;12.47;11.18;;;;;;;19.33;100.00;98825.47;1647828;86;21560;-70
2021/07/04 02:45:56;;;;;;;11.40;10.43;;;;;;;19.38;100.00;98832.10;1654533;86;21039;-70
2021/07/04 02:48:23;;;;;;;11.80;10.70;;;;;;;19.44;100.00;98838.20;1658735;86;21946;-71
2021/07/04 02:50:53;;;;;;;12.68;11.57;;;;;;;19.47;100.00;98840.30;1659410;86;21016;-71
2021/07/04 02:53:22;;;;;;;14.40;12.90;;;;;;;19.42;100.00;98839.09;1644642;86;21229;-70
2021/07/04 02:55:52;;;;;;;13.68;12.47;;;;;;;19.34;100.00;98840.70;1647431;86;20964;-71
2021/07/04 02:58:19;;;;;;;11.93;10.82;;;;;;;19.32;100.00;98847.63;1656646;86;21101;-69
2021/07/04 03:00:47;;;;;;;11.60;10.50;;;;;;;19.34;100.00;98850.25;1657335;86;20980;-72
2021/07/04 03:03:16;;;;;;;13.68;12.40;;;;;;;19.37;100.00;98850.17;1651393;86;21092;-71
2021/07/04 03:05:46;;;;;;;11.97;10.93;;;;;;;19.35;100.00;98857.87;1631459;88;21156;-71
2021/07/04 03:08:12;;;;;;;13.93;12.55;;;;;;;19.34;100.00;98858.44;1631310;88;21548;-71
2021/07/04 03:10:40;;;;;;;16.35;14.65;;;;;;;19.35;100.00;98856.52;1636561;85;21651;-72
2021/07/04 03:13:07;;;;;;;16.23;14.58;;;;;;;19.36;100.00;98852.10;1678537;83;21613;-71
2021/07/04 03:15:36;;;;;;;18.42;15.75;;;;;;;19.36;100.00;98858.11;1693082;84;21075;-71
2021/07/04 03:18:05;;;;;;;20.90;15.40;;;;;;;19.32;100.00;98862.62;1691516;84;21100;-71
2021/07/04 03:20:33;;;;;;;19.17;17.10;;;;;;;19.29;100.00;98851.00;1714812;83;20973;-68
2021/07/04 03:23:02;;;;;;;21.77;19.37;;;;;;;19.32;100.00;98859.34;1688836;83;20999;-70
2021/07/04 03:25:29;;;;;;;25.23;19.27;;;;;;;19.38;100.00;98860.73;1693219;84;21007;-70
2021/07/04 03:27:56;;;;;;;24.52;18.20;;;;;;;19.47;100.00;98858.80;1693324;84;21565;-70
2021/07/04 03:30:24;;;;;;;20.90;18.40;;;;;;;19.63;100.00;98874.61;1693305;84;21489;-69
2021/07/04 03:32:52;;;;;;;20.88;17.92;;;;;;;19.63;100.00;98874.61;1697453;82;21056;-69
2021/07/04 03:35:21;;;;;;;18.48;16.55;;;;;;;19.55;100.00;98881.16;1722060;83;20958;-69
2021/07/04 03:37:49;;;;;;;20.52;17.42;;;;;;;19.52;100.00;98887.81;1722125;82;21029;-70
2021/07/04 03:40:19;;;;;;;18.00;15.18;;;;;;;19.56;100.00;98890.14;1708619;83;21034;-71
2021/07/04 03:42:49;;;;;;;17.95;16.02;;;;;;;19.57;100.00;98889.80;1670141;84;21958;-71
2021/07/04 03:45:19;;;;;;;18.42;15.55;;;;;;;19.64;100.00;98892.02;1692897;84;20980;-70
2021/07/04 03:47:47;;;;;;;20.60;18.37;;;;;;;19.71;100.00;98897.75;1695227;84;21068;-71
2021/07/04 03:50:15;;;;;;;22.58;18.92;;;;;;;19.63;100.00;98897.23;1693348;84;21865;-70
2021/07/04 03:52:43;;;;;;;21.85;17.73;;;;;;;19.57;100.00;98897.17;1696794;83;21111;-69
2021/07/04 03:55:14;;;;;;;24.02;18.17;;;;;;;19.56;100.00;98898.33;1671655;82;21536;-73
2021/07/04 03:57:41;;;;;;;22.27;18.17;;;;;;;19.64;100.00;98889.30;1643342;84;20976;-70
2021/07/04 04:00:18;;;;;;;15.72;13.93;;;;;;;19.74;100.00;98895.74;1663082;86;21071;-69
2021/07/04 04:02:47;;;;;;;23.65;17.25;;;;;;;19.85;100.00;98905.72;1689110;83;21032;-69
2021/07/04 04:05:15;;;;;;;19.57;17.00;;;;;;;19.85;100.00;98905.72;1663383;86;21127;-69
2021/07/04 04:07:45;;;;;;;22.05;18.12;;;;;;;20.00;100.00;98905.13;1663700;86;21044;-69
2021/07/04 04:10:14;;;;;;;23.95;18.82;;;;;;;20.00;100.00;98905.13;1663836;86;21035;-71
2021/07/04 04:12:43;;;;;;;23.45;18.87;;;;;;;20.11;100.00;98900.89;1662384;85;21060;-69
2021/07/04 04:15:11;;;;;;;26.00;20.25;;;;;;;20.18;100.00;98897.64;1682167;84;21041;-76
2021/07/04 04:17:41;;;;;;;27.42;20.72;;;;;;;20.25;100.00;98895.16;1654741;86;21060;-71
2021/07/04 04:20:11;;;;;;;26.73;20.27;;;;;;;20.19;100.00;98895.92;1655244;85;21259;-70
2021/07/04 04:22:39;;;;;;;27.62;19.73;;;;;;;20.19;100.00;98895.92;1665761;85;21336;-69
2021/07/04 04:25:10;;;;;;;29.90;22.35;;;;;;;20.14;100.00;98891.25;1675214;85;21048;-72
2021/07/04 04:27:38;;;;;;;27.58;21.50;;;;;;;20.10;100.00;98895.75;1682608;85;20992;-71
2021/07/04 04:30:09;;;;;;;29.52;21.20;;;;;;;20.10;100.00;98895.75;1711820;83;21079;-69
2021/07/04 04:32:36;;;;;;;29.18;21.25;;;;;;;20.14;100.00;98907.62;1678256;85;22272;-70
2021/07/04 04:35:06;;;;;;;25.15;19.35;;;;;;;20.23;100.00;98904.27;1676782;85;21095;-70
2021/07/04 04:37:33;;;;;;;23.98;20.52;;;;;;;20.34;100.00;98914.48;1682110;85;21035;-69
2021/07/04 04:40:02;;;;;;;26.05;21.02;;;;;;;20.44;100.00;98913.28;1682377;84;20984;-73
2021/07/04 04:42:29;;;;;;;18.32;16.20;;;;;;;20.55;100.00;98914.48;1682447;85;21056;-71
2021/07/04 04:44:56;;;;;;;27.50;21.87;;;;;;;20.73;100.00;98908.28;1682620;85;21170;-71
2021/07/04 04:47:23;;;;;;;22.17;18.75;;;;;;;20.82;100.00;98909.80;1680261;85;20936;-69
2021/07/04 04:49:51;;;;;;;24.02;21.20;;;;;;;20.83;100.00;98908.67;1678848;84;20995;-70
2021/07/04 04:52:18;;;;;;;23.25;20.72;;;;;;;20.82;100.00;98908.44;1653649;85;21013;-69
2021/07/04 04:54:45;;;;;;;25.05;22.15;;;;;;;20.87;100.00;98913.70;1675789;85;21611;-69
2021/07/04 04:57:13;;;;;;;22.85;20.43;;;;;;;20.95;100.00;98912.59;1682524;85;21181;-70
2021/07/04 04:59:41;;;;;;;22.77;20.37;;;;;;;20.98;100.00;98914.64;1682508;85;20987;-69
2021/07/04 05:02:08;;;;;;;19.77;17.65;;;;;;;21.04;100.00;98916.03;1682494;84;21068;-69
2021/07/04 05:04:34;;;;;;;20.90;18.65;;;;;;;21.13;100.00;98907.17;1655852;84;21055;-72
2021/07/04 05:07:03;;;;;;;15.60;14.20;;;;;;;21.23;100.00;98911.67;1653564;86;21028;-68
2021/07/04 05:09:30;;;;;;;19.65;17.65;;;;;;;21.36;100.00;98913.85;1673905;85;21222;-68
2021/07/04 05:11:57;;;;;;;17.57;15.98;;;;;;;21.48;100.00;98917.98;1686429;84;20909;-69
2021/07/04 05:14:25;;;;;;;20.82;18.67;;;;;;;21.63;100.00;98909.08;1693190;84;21595;-69
2021/07/04 05:16:51;;;;;;;18.25;16.42;;;;;;;21.68;100.00;98903.95;1693304;83;21114;-69
2021/07/04 05:19:18;;;;;;;19.60;17.52;;;;;;;21.77;100.00;98902.48;1693189;84;21055;-70
2021/07/04 05:21:47;;;;;;;17.57;15.83;;;;;;;21.82;100.00;98903.06;1693268;84;21012;-71
2021/07/04 05:24:14;;;;;;;18.20;16.37;;;;;;;21.90;100.00;98899.39;1720815;83;20970;-70
2021/07/04 05:26:41;;;;;;;16.20;14.20;;;;;;;22.01;99.39;98902.50;1722384;83;21541;-70
2021/07/04 05:29:08;;;;;;;16.00;14.18;;;;;;;22.08;97.30;98902.13;1722126;83;21057;-70
2021/07/04 05:31:35;;;;;;;14.18;12.98;;;;;;;22.20;97.12;98908.17;1711179;83;21513;-70
2021/07/04 05:34:03;;;;;;;14.55;13.10;;;;;;;22.27;95.53;98912.48;1671506;82;21152;-71
2021/07/04 05:36:31;;;;;;;14.68;13.13;;;;;;;22.31;95.17;98913.38;1683709;83;20976;-70
2021/07/04 05:38:58;;;;;;;15.83;13.25;;;;;;;22.36;94.94;98910.40;1686475;83;21070;-68
2021/07/04 05:41:25;;;;;;;17.85;16.15;;;;;;;22.46;95.04;98918.70;1691536;84;21213;-77
2021/07/04 05:43:52;;;;;;;15.55;13.75;;;;;;;22.51;93.18;98912.98;1691640;84;20975;-70
2021/07/04 05:46:19;;;;;;;16.42;14.93;;;;;;;22.50;93.46;98914.13;1682126;83;21215;-69
2021/07/04 05:48:46;;;;;;;15.13;13.72;;;;;;;22.54;93.28;98908.20;1669897;84;20984;-69
2021/07/04 05:51:12;;;;;;;16.57;14.87;;;;;;;22.60;93.06;98905.41;1691427;83;20944;-70
2021/07/04 05:53:39;;;;;;;16.87;15.03;;;;;;;22.68;92.66;98903.69;1691702;83;21905;-70
2021/07/04 05:56:06;;;;;;;16.80;14.35;;;;;;;22.70;92.07;98905.48;1693042;83;21035;-70
2021/07/04 05:58:33;;;;;;;12.55;11.35;;;;;;;22.76;91.72;98909.62;1714605;83;21067;-70
2021/07/04 06:01:00;;;;;;;14.65;13.22;;;;;;;22.80;91.09;98904.45;1700024;83;20956;-71
2021/07/04 06:03:26;;;;;;;12.15;11.05;;;;;;;22.89;91.18;98893.33;1692788;84;21096;-69
2021/07/04 06:05:53;;;;;;;15.55;12.45;;;;;;;22.95;90.16;98891.36;1713062;83;21061;-68
2021/07/04 06:08:20;;;;;;;12.75;11.55;;;;;;;23.03;89.53;98889.59;1664730;83;21529;-69
2021/07/04 06:10:51;;;;;;;14.95;13.45;;;;;;;23.10;88.49;98881.56;1706726;83;21155;-69
2021/07/04 06:13:18;;;;;;;14.95;13.45;;;;;;;23.17;87.67;98883.67;1688843;83;21510;-70
2021/07/04 06:15:46;;;;;;;14.80;13.28;;;;;;;23.15;87.15;98880.50;1675266;83;21118;-68
2021/07/04 06:18:13;;;;;;;14.93;12.75;;;;;;;23.20;86.54;98882.42;1690275;83;21624;-69
2021/07/04 06:20:40;;;;;;;11.78;10.68;;;;;;;23.22;86.47;98882.05;1690738;83;21108;-71
2021/07/04 06:23:08;;;;;;;15.45;13.93;;;;;;;23.27;86.26;98877.09;1687793;85;21198;-70
2021/07/04 06:25:36;;;;;;;13.78;12.43;;;;;;;23.36;85.53;98881.83;1687559;85;21019;-70
2021/07/04 06:28:04;;;;;;;13.18;11.83;;;;;;;23.42;84.25;98880.42;1687835;85;21005;-69
2021/07/04 06:30:31;;;;;;;13.40;12.07;;;;;;;23.55;84.24;98888.61;1687846;85;21096;-69
2021/07/04 06:32:58;;;;;;;14.80;13.30;;;;;;;23.66;83.18;98882.78;1688025;83;21025;-69
2021/07/04 06:35:24;;;;;;;16.17;14.43;;;;;;;23.70;82.96;98883.08;1691213;83;21236;-69
2021/07/04 06:37:53;;;;;;;17.57;13.60;;;;;;;23.78;83.17;98886.23;1697475;83;20994;-70
2021/07/04 06:40:20;;;;;;;15.75;14.38;;;;;;;23.90;82.43;98886.69;1683317;84;21079;-71
2021/07/04 06:42:46;;;;;;;15.88;14.25;;;;;;;23.96;81.65;98883.09;1692931;83;21028;-70
2021/07/04 06:45:15;;;;;;;15.43;13.62;;;;;;;23.97;81.67;98886.06;1692836;84;21070;-73
2021/07/04 06:47:45;;;;;;;13.65;12.37;;;;;;;24.06;81.56;98878.42;1692372;84;21145;-72
2021/07/04 06:50:13;;;;;;;14.60;13.18;;;;;;;24.18;80.82;98874.98;1691445;84;21054;-70
2021/07/04 06:52:42;;;;;;;15.13;13.68;;;;;;;24.25;79.05;98878.48;1691628;84;21019;-71
2021/07/04 06:55:11;;;;;;;16.32;14.60;;;;;;;24.32;79.24;98872.54;1691014;83;21260;-72
2021/07/04 06:57:37;;;;;;;14.83;12.33;;;;;;;24.46;78.51;98873.41;1693241;84;21562;-72
2021/07/04 07:00:16;;;;;;;16.70;13.15;;;;;;;24.57;77.81;98872.26;1693382;83;21550;-75
2021/07/04 07:02:42;;;;;;;13.38;12.07;;;;;;;24.66;77.83;98875.00;1688802;85;20949;-70
2021/07/04 07:05:11;;;;;;;13.43;11.88;;;;;;;24.85;76.75;98876.13;1682695;83;21023;-71
2021/07/04 07:07:39;;;;;;;13.22;12.03;;;;;;;24.95;75.77;98876.38;1713026;83;21005;-71
2021/07/04 07:10:10;;;;;;;15.63;11.22;;;;;;;25.09;75.10;98882.71;1721880;83;20997;-71
2021/07/04 07:12:38;;;;;;;13.80;12.58;;;;;;;25.17;73.96;98883.08;1671586;83;21144;-72
2021/07/04 07:15:08;;;;;;;11.75;10.40;;;;;;;25.15;73.45;98883.43;1653388;86;21580;-71
2021/07/04 07:17:35;;;;;;;17.75;13.15;;;;;;;25.18;73.15;98875.01;1653283;86;21012;-72
2021/07/04 07:20:06;;;;;;;17.40;10.98;;;;;;;25.25;73.11;98872.39;1660958;85;21167;-71
2021/07/04 07:22:33;;;;;;;13.58;11.88;;;;;;;25.39;72.69;98882.27;1676105;85;21059;-70
2021/07/04 07:25:00;;;;;;;12.35;11.05;;;;;;;25.52;71.74;98882.28;1653620;86;21103;-71
2021/07/04 07:27:28;;;;;;;12.00;10.85;;;;;;;25.59;71.20;98878.31;1655207;85;21656;-72
2021/07/04 07:29:56;;;;;;;15.43;11.63;;;;;;;25.72;70.74;98879.47;1652848;86;21036;-70
2021/07/04 07:32:23;;;;;;;11.43;10.53;;;;;;;25.85;70.41;98875.38;1653406;86;21052;-71
2021/07/04 07:34:50;;;;;;;22.27;18.90;;;;;;;25.89;70.18;98878.39;1653491;86;21526;-72
2021/07/04 07:37:17;;;;;;;14.40;13.00;;;;;;;25.92;69.88;98876.26;1665190;85;21155;-70
2021/07/04 07:39:43;;;;;;;13.83;12.43;;;;;;;25.95;69.98;98868.61;1682121;85;21534;-71
2021/07/04 07:42:10;;;;;;;11.60;10.40;;;;;;;26.04;69.75;98874.64;1658336;85;21032;-70
2021/07/04 07:44:37;;;;;;;10.95;9.85;;;;;;;26.17;68.72;98873.86;1665725;85;21599;-69
2021/07/04 07:47:06;;;;;;;13.28;11.43;;;;;;;26.17;67.79;98870.30;1658245;85;21604;-72
2021/07/04 07:49:33;;;;;;;11.63;10.63;;;;;;;26.13;67.74;98878.53;1666356;85;21191;-70
2021/07/04 07:52:01;;;;;;;10.95;9.95;;;;;;;26.16;67.63;98877.77;1682231;85;21489;-70
2021/07/04 07:54:30;;;;;;;10.30;9.48;;;;;;;26.27;66.08;98880.71;1681904;85;21056;-71
2021/07/04 07:56:57;;;;;;;10.45;9.48;;;;;;;26.34;65.91;98880.79;1657229;85;21044;-71
2021/07/04 07:59:24;;;;;;;10.95;9.95;;;;;;;26.43;64.63;98883.47;1653582;86;21084;-84
2021/07/04 08:01:52;;;;;;;9.93;8.95;;;;;;;26.42;65.02;98879.16;1677053;85;21208;-72
2021/07/04 08:04:19;;;;;;;17.10;14.43;;;;;;;26.35;64.70;98882.38;1681636;84;21092;-70
2021/07/04 08:06:45;;;;;;;9.58;8.68;;;;;;;26.33;64.38;98875.85;1660386;85;21078;-69
2021/07/04 08:09:12;;;;;;;9.85;8.88;;;;;;;26.36;62.95;98878.46;1653308;86;21064;-70
2021/07/04 08:11:45;;;;;;;8.15;7.47;;;;;;;26.42;63.08;98890.77;1653886;86;21068;-71
2021/07/04 08:14:12;;;;;;;7.05;6.55;;;;;;;26.46;61.93;98883.33;1674222;85;21513;-69
2021/07/04 08:16:42;;;;;;;10.60;6.75;;;;;;;26.48;60.80;98892.80;1682322;83;21039;-71
2021/07/04 08:19:10;;;;;;;7.05;6.53;;;;;;;26.46;58.81;98888.26;1682010;84;20996;-73
2021/07/04 08:21:37;;;;;;;11.75;9.63;;;;;;;26.43;58.87;98893.13;1682620;84;21055;-69
2021/07/04 08:24:05;;;;;;;7.05;6.45;;;;;;;26.43;59.51;98890.95;1682535;85;21027;-70
2021/07/04 08:26:34;;;;;;;6.62;5.42;;;;;;;26.43;58.72;98893.13;1680617;84;21133;-71
2021/07/04 08:29:01;;;;;;;8.63;7.12;;;;;;;26.42;58.16;98890.77;1659249;84;21039;-70
2021/07/04 08:31:28;;;;;;;10.45;6.12;;;;;;;26.35;59.45;98890.66;1653408;86;21569;-71
2021/07/04 08:33:55;;;;;;;6.95;5.80;;;;;;;26.38;60.30;98893.45;1653381;86;21067;-71
2021/07/04 08:36:22;;;;;;;6.75;5.83;;;;;;;26.38;60.85;98891.27;1653782;85;21123;-70
2021/07/04 08:38:50;;;;;;;7.35;6.58;;;;;;;26.37;59.77;98892.47;1653788;86;21530;-72
2021/07/04 08:41:17;;;;;;;7.35;6.58;;;;;;;26.42;59.95;98895.70;1654447;85;21044;-72
2021/07/04 08:43:43;;;;;;;9.38;6.42;;;;;;;26.47;59.83;98905.60;1653571;85;21075;-70
2021/07/04 08:46:11;;;;;;;9.05;6.55;;;;;;;26.46;59.43;98899.87;1653449;86;21056;-71
2021/07/04 08:48:40;;;;;;;10.20;7.12;;;;;;;26.48;60.02;98900.27;1676014;85;21064;-72
2021/07/04 08:51:12;;;;;;;9.25;8.23;;;;;;;26.54;60.60;98897.98;1655827;85;21773;-70
2021/07/04 08:53:39;;;;;;;9.58;8.48;;;;;;;26.59;61.29;98894.31;1653304;86;21497;-71
2021/07/04 08:56:06;;;;;;;13.00;7.53;;;;;;;26.69;61.65;98896.41;1653371;86;21076;-71
2021/07/04 08:58:32;;;;;;;8.70;7.85;;;;;;;26.73;61.80;98900.58;1653405;86;21012;-71
2021/07/04 09:01:21;;;;;;;9.55;7.28;;;;;;;26.75;61.24;98896.30;1653651;86;21060;-71
2021/07/04 09:04:11;;;;;;;6.03;5.47;;;;;;;26.70;60.19;98905.48;1653781;85;21959;-71
2021/07/04 09:06:48;;;;;;;7.25;5.85;;;;;;;26.66;59.53;98904.07;1658428;84;21508;-72
2021/07/04 09:09:26;;;;;;;7.62;5.97;;;;;;;26.67;56.20;98899.32;1671337;85;21124;-72
2021/07/04 09:12:10;;;;;;;7.90;6.55;;;;;;;26.67;57.45;98902.87;1658432;86;21068;-71
2021/07/04 09:14:45;;;;;;;7.87;6.87;;;;;;;26.73;59.11;98895.06;1673056;85;21581;-71
2021/07/04 09:17:14;;;;;;;7.08;6.45;;;;;;;26.86;59.17;98901.36;1675860;85;21177;-71
2021/07/04 09:19:56;;;;;;;10.88;6.80;;;;;;;26.93;58.94;98894.33;1676992;85;22207;-70
2021/07/04 09:22:34;;;;;;;6.83;6.22;;;;;;;26.97;57.41;98893.78;1669733;86;20978;-70
2021/07/04 09:25:15;;;;;;;7.40;6.70;;;;;;;26.97;57.05;98888.27;1669047;86;21604;-69
2021/07/04 09:28:04;;;;;;;6.30;5.42;;;;;;;27.04;57.05;98884.21;1661677;85;21631;-71
2021/07/04 09:30:40;;;;;;;10.50;6.90;;;;;;;27.13;57.25;98892.39;1668915;85;21239;-70
2021/07/04 09:33:21;;;;;;;6.35;5.70;;;;;;;27.21;56.64;98888.52;1658700;86;21572;-70
2021/07/04 09:36:03;;;;;;;8.23;5.58;;;;;;;27.32;55.34;98880.34;1648287;87;21029;-71
2021/07/04 09:38:41;;;;;;;8.03;5.92;;;;;;;27.42;54.82;98881.61;1658391;86;21513;-70
2021/07/04 09:41:12;;;;;;;7.00;5.37;;;;;;;27.55;55.04;98881.55;1666929;85;21072;-70
2021/07/04 09:43:39;;;;;;;6.62;5.97;;;;;;;27.73;54.70;98886.03;1668708;85;22234;-75
2021/07/04 09:46:11;;;;;;;6.58;5.97;;;;;;;27.84;54.73;98884.73;1695063;83;21011;-70
2021/07/04 09:48:43;;;;;;;6.22;5.62;;;;;;;27.89;54.78;98884.95;1670691;83;33297;-70
2021/07/04 09:51:29;;;;;;;6.97;6.30;;;;;;;27.91;54.92;98879.85;1712403;83;21055;-71
2021/07/04 09:54:00;;;;;;;6.70;5.85;;;;;;;27.95;54.71;98881.45;1691536;83;21048;-72
2021/07/04 09:56:33;;;;;;;5.80;5.30;;;;;;;27.97;54.32;98875.52;1682027;85;21502;-71
2021/07/04 09:59:02;;;;;;;7.10;5.78;;;;;;;28.02;54.97;98879.31;1683626;85;21064;-71
2021/07/04 10:01:40;;;;;;;6.58;5.87;;;;;;;28.02;55.32;98871.81;1683675;85;21017;-72
2021/07/04 10:04:10;;;;;;;9.25;5.78;;;;;;;27.99;54.38;98869.83;1682730;83;21031;-73
2021/07/04 10:06:50;;;;;;;6.03;5.42;;;;;;;28.07;54.71;98866.50;1687503;83;21103;-72
2021/07/04 10:09:19;;;;;;;7.75;5.67;;;;;;;28.18;54.03;98862.66;1712342;83;21154;-68
2021/07/04 10:11:46;;;;;;;11.05;7.33;;;;;;;28.20;52.77;98862.88;1712407;83;21023;-70
2021/07/04 10:14:13;;;;;;;9.30;6.00;;;;;;;28.14;53.04;98867.97;1695791;83;21122;-69
2021/07/04 10:16:42;;;;;;;7.87;6.72;;;;;;;28.18;53.14;98862.66;1692703;83;21032;-68
2021/07/04 10:19:19;;;;;;;6.53;6.03;;;;;;;28.25;52.84;98859.73;1680970;85;21072;-69
2021/07/04 10:21:48;;;;;;;5.70;5.12;;;;;;;28.33;52.89;98862.14;1701583;83;21150;-74
2021/07/04 10:24:15;;;;;;;6.72;4.90;;;;;;;28.53;52.47;98857.89;1675110;84;21092;-75
2021/07/04 10:26:42;;;;;;;6.58;5.87;;;;;;;28.70;51.62;98865.23;1666743;86;20999;-72
2021/07/04 10:29:09;;;;;;;8.63;5.95;;;;;;;28.66;50.71;98858.31;1675492;84;21098;-73
2021/07/04 10:31:37;;;;;;;7.72;5.30;;;;;;;28.63;50.53;98859.70;1648536;85;21109;-74
2021/07/04 10:34:10;;;;;;;8.15;7.22;;;;;;;28.67;49.63;98854.95;1687139;84;21617;-73
2021/07/04 10:36:55;;;;;;;9.33;5.65;;;;;;;28.65;50.14;98845.66;1663486;84;20949;-71
2021/07/04 10:39:22;;;;;;;7.45;6.67;;;;;;;28.67;50.57;98856.34;1668636;85;21050;-72
2021/07/04 10:41:59;;;;;;;6.12;5.62;;;;;;;28.77;51.00;98850.87;1692680;84;21608;-71
2021/07/04 10:44:41;;;;;;;6.22;5.72;;;;;;;28.72;51.19;98843.54;1706533;83;20980;-70
2021/07/04 10:47:26;;;;;;;5.67;5.17;;;;;;;28.49;50.74;98841.84;1701886;83;21126;-75
2021/07/04 10:50:14;;;;;;;5.47;5.08;;;;;;;28.29;51.26;98839.21;1676665;84;20990;-72
2021/07/04 10:52:46;;;;;;;7.00;5.87;;;;;;;28.38;52.42;98836.08;1681668;83;21003;-70
2021/07/04 10:55:14;;;;;;;6.45;5.45;;;;;;;28.48;52.21;98833.95;1692812;84;21001;-75
2021/07/04 10:57:55;;;;;;;9.25;5.90;;;;;;;28.51;51.85;98833.16;1675883;84;21078;-72
2021/07/04 11:00:27;;;;;;;6.42;5.78;;;;;;;28.47;52.51;98833.16;1682365;83;21536;-78
2021/07/04 11:03:04;;;;;;;8.75;5.25;;;;;;;28.49;51.63;98835.54;1680588;85;21057;-71
2021/07/04 11:05:39;;;;;;;5.42;4.92;;;;;;;28.44;51.59;98824.84;1680780;85;21036;-74
2021/07/04 11:08:24;;;;;;;5.70;5.17;;;;;;;28.45;50.13;98824.44;1680828;85;21540;-73
2021/07/04 11:11:03;;;;;;;6.65;5.72;;;;;;;28.45;50.31;98825.02;1683311;83;21076;-73
2021/07/04 11:13:34;;;;;;;5.90;4.47;;;;;;;28.32;50.67;98828.74;1662930;85;23261;-75
2021/07/04 11:16:11;;;;;;;5.60;5.10;;;;;;;28.33;51.20;98819.86;1689124;84;21605;-74
2021/07/04 11:18:48;;;;;;;7.85;5.30;;;;;;;28.47;50.59;98820.70;1689311;84;20987;-76
2021/07/04 11:21:18;;;;;;;7.95;5.40;;;;;;;28.61;50.33;98817.98;1700460;83;21008;-72
2021/07/04 11:23:46;;;;;;;6.72;5.92;;;;;;;28.75;49.95;98819.22;1722160;83;21080;-71
2021/07/04 11:26:15;;;;;;;5.10;4.70;;;;;;;28.79;49.41;98820.02;1721982;83;21831;-71
2021/07/04 11:28:45;;;;;;;5.80;5.30;;;;;;;28.87;48.17;98828.55;1717636;83;21028;-72
2021/07/04 11:31:20;;;;;;;4.97;4.42;;;;;;;29.06;47.07;98821.27;1688946;83;21579;-72